Time;durP1;ratioP1;P1;durP2;ratioP2;P2;SDS_P1;SDS_P2;PMS_P1;PMS_P2;Temp;Humidity;BMP_temperature;BMP_pressure;BME280_temperature;BME280_humidity;BME280_pressure;Samples;Min_cycle;Max_cycle;Signal;HPM_P1;HPM_P2
2022/06/13 00:01:24;;;;;;;4.95;2.08;;;16.60;61.70;;;;;;5045995;28;20083;-68
2022/06/13 00:03:50;;;;;;;6.10;2.10;;;16.50;61.90;;;;;;5048293;28;20078;-68
2022/06/13 00:06:17;;;;;;;4.13;2.03;;;16.50;61.80;;;;;;5049854;28;20474;-68
2022/06/13 00:08:42;;;;;;;4.97;2.22;;;16.50;61.90;;;;;;5049259;28;20033;-70
2022/06/13 00:11:13;;;;;;;5.72;2.60;;;16.50;62.10;;;;;;5049892;28;20443;-69
2022/06/13 00:13:41;;;;;;;5.90;2.20;;;16.40;62.10;;;;;;5049823;28;20078;-69
2022/06/13 00:16:08;;;;;;;4.32;2.08;;;16.40;62.10;;;;;;5049931;28;20025;-69
2022/06/13 00:18:34;;;;;;;6.03;2.42;;;16.40;62.20;;;;;;5038164;28;20029;-69
2022/06/13 00:20:59;;;;;;;6.65;3.00;;;16.30;62.30;;;;;;5049529;28;20025;-69
2022/06/13 00:23:25;;;;;;;8.23;2.47;;;16.30;62.50;;;;;;5049464;28;20028;-69
2022/06/13 00:25:51;;;;;;;6.55;2.60;;;16.40;62.70;;;;;;5047865;28;20032;-69
2022/06/13 00:28:16;;;;;;;5.97;2.47;;;16.40;62.70;;;;;;5049157;28;20025;-68
2022/06/13 00:30:42;;;;;;;5.70;2.38;;;16.40;62.70;;;;;;5049495;28;20093;-68
2022/06/13 00:33:07;;;;;;;7.38;2.47;;;16.30;62.60;;;;;;5049781;28;20100;-69
2022/06/13 00:35:33;;;;;;;5.55;2.38;;;16.30;62.70;;;;;;5048244;28;20048;-68
2022/06/13 00:37:58;;;;;;;5.85;2.38;;;16.30;62.80;;;;;;5048126;28;20041;-68
2022/06/13 00:40:24;;;;;;;4.88;1.85;;;16.30;62.80;;;;;;5045697;28;20118;-69
2022/06/13 00:42:50;;;;;;;8.52;2.33;;;16.20;62.90;;;;;;5039999;28;20415;-69
2022/06/13 00:45:15;;;;;;;5.70;2.20;;;16.20;63.30;;;;;;5047948;28;20021;-68
2022/06/13 00:47:43;;;;;;;4.10;2.22;;;16.10;63.20;;;;;;5046984;28;20104;-68
2022/06/13 00:50:14;;;;;;;5.90;2.30;;;16.10;63.30;;;;;;5045132;28;20021;-68
2022/06/13 00:52:46;;;;;;;4.15;2.55;;;16.10;63.60;;;;;;5060534;28;20479;-68
2022/06/13 00:55:14;;;;;;;5.47;2.10;;;16.10;63.60;;;;;;5046830;28;20021;-68
2022/06/13 00:57:40;;;;;;;5.65;2.30;;;16.10;63.50;;;;;;5045953;28;20491;-68
2022/06/13 01:00:11;;;;;;;5.45;2.50;;;16.10;63.50;;;;;;5063474;28;20028;-69
2022/06/13 01:02:40;;;;;;;2.67;1.70;;;16.10;63.70;;;;;;5044355;28;20106;-69
2022/06/13 01:05:08;;;;;;;4.32;2.35;;;16.10;63.90;;;;;;5042565;28;20505;-68
2022/06/13 01:07:35;;;;;;;6.57;2.60;;;16.10;63.80;;;;;;5045344;28;20040;-69
2022/06/13 01:12:46;;;;;;;7.13;2.60;;;16.20;63.80;;;;;;5048798;28;20139;-68
2022/06/13 01:15:18;;;;;;;5.97;2.65;;;16.20;63.90;;;;;;5047166;28;20103;-68
2022/06/13 01:17:55;;;;;;;5.13;2.47;;;16.20;64.00;;;;;;5050139;28;20036;-69
2022/06/13 01:20:51;;;;;;;4.90;2.20;;;16.30;64.30;;;;;;5043816;28;20037;-69
2022/06/13 01:23:42;;;;;;;5.40;2.83;;;16.30;64.40;;;;;;5042766;28;20051;-69
2022/06/13 01:26:38;;;;;;;5.88;2.60;;;16.40;64.30;;;;;;5045800;28;20847;-68
2022/06/13 01:29:30;;;;;;;6.05;2.30;;;16.40;64.30;;;;;;5046476;28;20032;-68
2022/06/13 01:31:59;;;;;;;;;;;16.40;64.30;;;;;;5047731;28;20040;-70
2022/06/13 01:34:44;;;;;;;5.63;2.30;;;16.50;64.30;;;;;;5047352;28;20501;-70
2022/06/13 01:37:37;;;;;;;6.10;2.55;;;16.40;64.50;;;;;;5045918;28;20033;-69
2022/06/13 01:40:05;;;;;;;9.18;2.90;;;16.50;64.50;;;;;;5039933;28;20021;-71
2022/06/13 01:42:52;;;;;;;5.70;2.53;;;16.60;64.40;;;;;;5047848;28;20060;-70
2022/06/13 01:45:51;;;;;;;4.93;2.10;;;16.60;64.50;;;;;;5041435;28;20078;-70
2022/06/13 01:48:42;;;;;;;5.97;2.50;;;16.60;64.40;;;;;;5047156;28;20351;-69
2022/06/13 01:51:08;;;;;;;5.90;2.42;;;16.70;64.60;;;;;;5045367;28;20048;-70
2022/06/13 01:53:41;;;;;;;6.38;2.60;;;16.70;64.50;;;;;;5048050;28;20020;-71
2022/06/13 01:56:13;;;;;;;5.45;2.30;;;16.70;64.50;;;;;;5046884;28;20060;-69
2022/06/13 01:58:56;;;;;;;5.78;2.53;;;16.70;64.40;;;;;;5044323;28;20116;-69
2022/06/13 02:01:43;;;;;;;6.05;2.38;;;16.70;64.50;;;;;;5046162;28;20033;-68
2022/06/13 02:04:17;;;;;;;7.25;2.50;;;16.70;64.60;;;;;;5043973;28;20075;-68
2022/06/13 02:06:47;;;;;;;6.25;2.40;;;16.70;64.60;;;;;;5048374;28;20111;-68
2022/06/13 02:09:27;;;;;;;4.63;2.30;;;16.80;64.60;;;;;;5049278;28;20120;-70
2022/06/13 02:11:55;;;;;;;8.15;2.67;;;16.70;64.70;;;;;;5052582;28;20495;-68
2022/06/13 02:14:43;;;;;;;6.88;2.33;;;16.80;64.70;;;;;;5052198;28;20028;-67
2022/06/13 02:17:18;;;;;;;7.13;2.58;;;16.80;64.60;;;;;;5052328;28;20029;-68
2022/06/13 02:20:00;;;;;;;6.63;2.72;;;16.80;64.70;;;;;;5047731;28;20033;-69
2022/06/13 02:22:36;;;;;;;5.38;2.35;;;16.80;64.70;;;;;;5052597;28;20403;-69
2022/06/13 02:25:17;;;;;;;5.38;2.50;;;16.90;64.70;;;;;;5052092;28;20482;-69
2022/06/13 02:27:46;;;;;;;6.05;2.83;;;16.90;64.60;;;;;;5052528;28;20029;-70
2022/06/13 02:30:17;;;;;;;6.75;2.40;;;16.80;64.70;;;;;;5052435;28;20025;-70
2022/06/13 02:33:12;;;;;;;6.10;2.90;;;16.70;64.90;;;;;;5052735;28;20479;-69
2022/06/13 02:36:13;;;;;;;7.32;2.80;;;16.70;65.20;;;;;;5062020;28;20041;-69
2022/06/13 02:38:48;;;;;;;8.15;3.20;;;16.60;65.40;;;;;;5048946;28;20531;-69
2022/06/13 02:41:19;;;;;;;7.85;3.80;;;16.60;65.80;;;;;;5049769;28;20074;-69
2022/06/13 02:43:54;;;;;;;5.97;3.10;;;16.50;66.20;;;;;;5046614;28;20021;-69
2022/06/13 02:46:29;;;;;;;6.10;2.97;;;16.40;67.00;;;;;;5044495;28;20033;-68
2022/06/13 02:49:10;;;;;;;8.10;4.10;;;16.30;66.70;;;;;;5050598;28;20025;-67
2022/06/13 02:51:41;;;;;;;7.70;3.28;;;16.30;67.20;;;;;;5046114;28;20029;-67
2022/06/13 02:54:30;;;;;;;7.72;3.70;;;16.20;67.20;;;;;;5064567;28;20045;-67
2022/06/13 02:57:24;;;;;;;6.25;3.17;;;16.20;67.30;;;;;;5048500;28;20036;-67
2022/06/13 02:59:55;;;;;;;8.00;3.10;;;16.20;67.20;;;;;;5048369;28;20037;-69
2022/06/13 03:02:29;;;;;;;7.18;2.75;;;16.20;67.20;;;;;;5043820;28;20556;-69
2022/06/13 03:05:11;;;;;;;6.30;2.65;;;16.30;67.00;;;;;;5049441;28;20648;-69
2022/06/13 03:07:43;;;;;;;6.25;2.78;;;16.30;66.80;;;;;;5048955;28;20040;-69
2022/06/13 03:10:16;;;;;;;9.98;3.22;;;16.30;66.70;;;;;;5048919;28;20017;-69
2022/06/13 03:13:03;;;;;;;4.93;2.63;;;16.40;66.60;;;;;;5048761;28;20032;-69
2022/06/13 03:15:48;;;;;;;6.07;2.70;;;16.40;66.50;;;;;;5055854;28;20028;-69
2022/06/13 03:18:23;;;;;;;6.32;2.85;;;16.50;66.40;;;;;;5049691;28;20025;-68
2022/06/13 03:20:57;;;;;;;7.82;3.40;;;16.50;66.40;;;;;;5046644;28;20036;-69
2022/06/13 03:23:45;;;;;;;5.93;2.95;;;16.50;66.30;;;;;;5040184;28;20026;-68
2022/06/13 03:26:27;;;;;;;5.65;2.78;;;16.50;66.20;;;;;;5065362;28;20028;-70
2022/06/13 03:29:08;;;;;;;6.18;2.85;;;16.50;66.20;;;;;;5050012;28;20474;-69
2022/06/13 03:31:43;;;;;;;6.30;3.15;;;16.50;66.30;;;;;;5049704;28;20482;-68
2022/06/13 03:34:14;;;;;;;7.13;3.00;;;16.50;66.30;;;;;;5049926;28;20052;-68
2022/06/13 03:36:48;;;;;;;6.75;3.38;;;16.50;66.20;;;;;;5049907;28;20091;-69
2022/06/13 03:39:18;;;;;;;5.10;2.92;;;16.60;66.40;;;;;;5049415;28;20088;-70
2022/06/13 03:41:53;;;;;;;7.50;3.00;;;16.60;66.30;;;;;;5048599;28;20029;-68
2022/06/13 03:44:42;;;;;;;4.40;2.60;;;16.60;66.40;;;;;;5049823;28;20028;-68
2022/06/13 03:47:19;;;;;;;7.70;3.13;;;16.60;66.50;;;;;;5045005;28;20033;-68
2022/06/13 03:49:59;;;;;;;8.43;3.55;;;16.60;66.60;;;;;;5047857;28;20045;-69
2022/06/13 03:52:28;;;;;;;6.85;3.33;;;16.60;66.70;;;;;;5049292;28;20029;-69
2022/06/13 03:55:07;;;;;;;5.60;3.13;;;16.60;66.60;;;;;;5041195;28;20028;-68
2022/06/13 03:57:47;;;;;;;6.35;3.17;;;16.60;66.50;;;;;;5048160;28;20090;-67
2022/06/13 04:00:17;;;;;;;7.47;3.10;;;16.60;66.60;;;;;;5042878;28;20025;-70
2022/06/13 04:02:44;;;;;;;6.18;3.53;;;16.60;66.60;;;;;;5050019;28;20051;-69
2022/06/13 04:05:32;;;;;;;6.50;3.50;;;16.60;66.70;;;;;;5050546;28;20108;-68
2022/06/13 04:08:00;;;;;;;6.18;3.45;;;16.60;66.90;;;;;;5050347;28;20529;-70
2022/06/13 04:10:27;;;;;;;7.05;3.30;;;16.60;66.90;;;;;;5049444;28;20025;-68
2022/06/13 04:13:11;;;;;;;7.03;2.85;;;16.60;67.00;;;;;;5050067;28;20044;-69
2022/06/13 04:16:05;;;;;;;8.57;3.53;;;16.50;67.10;;;;;;5049577;28;20036;-70
2022/06/13 04:18:55;;;;;;;6.55;3.60;;;16.50;67.40;;;;;;5049823;28;20120;-68
2022/06/13 04:21:37;;;;;;;7.38;3.00;;;16.50;67.60;;;;;;5049184;28;20036;-68
2022/06/13 04:24:11;;;;;;;4.88;2.72;;;16.50;67.70;;;;;;5045147;28;20498;-69
2022/06/13 04:27:02;;;;;;;7.45;3.28;;;16.50;67.60;;;;;;5049443;28;20036;-67
2022/06/13 04:29:45;;;;;;;6.20;3.15;;;16.50;67.70;;;;;;5049434;28;20017;-68
2022/06/13 04:32:14;;;;;;;9.20;3.58;;;16.50;67.70;;;;;;5048975;28;20028;-69
2022/06/13 04:34:50;;;;;;;7.00;3.25;;;16.50;67.70;;;;;;5047671;28;20083;-68
2022/06/13 04:37:17;;;;;;;8.35;3.67;;;16.50;67.80;;;;;;5048366;28;20376;-69
2022/06/13 04:39:45;;;;;;;6.05;3.50;;;16.60;67.80;;;;;;5046211;28;20033;-69
2022/06/13 04:42:13;;;;;;;5.93;3.13;;;16.60;67.70;;;;;;5046258;28;20032;-69
2022/06/13 04:44:41;;;;;;;6.40;4.07;;;16.60;67.80;;;;;;5047484;28;20044;-68
2022/06/13 04:47:08;;;;;;;6.10;3.60;;;16.60;67.70;;;;;;5043481;28;20025;-68
2022/06/13 04:49:48;;;;;;;7.93;3.60;;;16.60;67.80;;;;;;5044452;28;20047;-68
2022/06/13 04:52:17;;;;;;;6.32;3.17;;;16.60;67.90;;;;;;5046540;28;20032;-69
2022/06/13 04:54:50;;;;;;;9.07;3.60;;;16.70;67.90;;;;;;5043586;28;20036;-68
2022/06/13 04:57:17;;;;;;;7.03;3.40;;;16.70;68.00;;;;;;5044391;28;20032;-67
2022/06/13 04:59:45;;;;;;;6.40;3.22;;;16.70;67.90;;;;;;5045861;28;20549;-66
2022/06/13 05:02:13;;;;;;;7.75;3.60;;;16.70;67.90;;;;;;5050140;28;20037;-66
2022/06/13 05:04:39;;;;;;;7.22;3.72;;;16.80;68.00;;;;;;5050854;28;20028;-67
2022/06/13 05:07:18;;;;;;;7.80;3.90;;;16.80;68.00;;;;;;5043655;28;20040;-67
2022/06/13 05:09:49;;;;;;;7.18;3.45;;;16.90;68.00;;;;;;5044443;28;20109;-67
2022/06/13 05:12:20;;;;;;;7.40;3.30;;;16.90;68.10;;;;;;5044658;28;20540;-67
2022/06/13 05:15:06;;;;;;;8.48;3.85;;;17.00;68.10;;;;;;5045238;28;20033;-67
2022/06/13 05:18:13;;;;;;;8.65;3.80;;;17.00;68.00;;;;;;5043604;28;20021;-66
2022/06/13 05:21:06;;;;;;;8.20;3.90;;;17.10;68.00;;;;;;5043658;28;20028;-67
2022/06/13 05:23:50;;;;;;;8.35;3.35;;;17.20;68.00;;;;;;5045679;28;20060;-68
2022/06/13 05:26:17;;;;;;;6.00;3.53;;;17.20;67.90;;;;;;5043743;28;20029;-68
2022/06/13 05:28:42;;;;;;;8.43;3.85;;;17.30;67.80;;;;;;5044835;28;20423;-68
2022/06/13 05:31:13;;;;;;;6.35;3.80;;;17.20;67.70;;;;;;5044108;28;20025;-67
2022/06/13 05:33:41;;;;;;;8.18;3.80;;;17.30;67.70;;;;;;5045531;28;20021;-69
2022/06/13 05:36:12;;;;;;;6.82;3.40;;;17.40;67.70;;;;;;5043606;28;20033;-68
2022/06/13 05:38:42;;;;;;;7.03;3.50;;;17.40;67.70;;;;;;5044268;28;20029;-68
2022/06/13 05:41:09;;;;;;;7.93;4.13;;;17.40;67.80;;;;;;5046573;28;20021;-67
2022/06/13 05:43:34;;;;;;;8.00;3.78;;;17.40;67.70;;;;;;5048231;28;20035;-67
2022/06/13 05:46:00;;;;;;;7.32;3.90;;;17.30;67.70;;;;;;5049365;28;20669;-67
2022/06/13 05:48:26;;;;;;;7.90;3.90;;;17.40;67.80;;;;;;5050525;28;20061;-68
2022/06/13 05:50:54;;;;;;;8.75;4.10;;;17.30;67.90;;;;;;5047514;28;20115;-68
2022/06/13 05:53:23;;;;;;;9.45;3.92;;;17.30;68.00;;;;;;5045283;28;20032;-67
2022/06/13 05:55:50;;;;;;;9.20;3.88;;;17.30;68.10;;;;;;5047951;28;20109;-67
2022/06/13 05:58:17;;;;;;;7.57;3.67;;;17.30;68.10;;;;;;5052207;28;20471;-67
2022/06/13 06:00:46;;;;;;;6.80;4.07;;;17.40;68.10;;;;;;5046762;28;20032;-67
2022/06/13 06:03:12;;;;;;;6.82;3.42;;;17.40;68.00;;;;;;5052729;28;20024;-67
2022/06/13 06:05:39;;;;;;;7.22;3.92;;;17.50;67.80;;;;;;5052908;28;20391;-67
2022/06/13 06:08:06;;;;;;;8.65;3.65;;;17.60;67.70;;;;;;5052850;28;20442;-67
2022/06/13 06:10:37;;;;;;;6.00;3.15;;;17.80;67.40;;;;;;5052179;28;20021;-66
2022/06/13 06:13:03;;;;;;;8.13;3.40;;;18.10;66.80;;;;;;5032888;28;20472;-66
2022/06/13 06:15:29;;;;;;;7.38;3.78;;;18.30;66.30;;;;;;5051199;28;20405;-68
2022/06/13 06:17:55;;;;;;;8.48;4.07;;;18.60;66.30;;;;;;5056635;28;20064;-69
2022/06/13 06:20:22;;;;;;;7.55;3.80;;;18.80;64.90;;;;;;5057483;28;20052;-68
2022/06/13 06:22:47;;;;;;;7.45;3.40;;;19.00;64.40;;;;;;5055454;28;20021;-68
2022/06/13 06:25:13;;;;;;;7.13;3.03;;;19.20;63.50;;;;;;5052663;28;20043;-68
2022/06/13 06:27:39;;;;;;;6.30;2.80;;;19.30;62.80;;;;;;5052747;28;20025;-67
2022/06/13 06:30:07;;;;;;;5.45;3.08;;;19.40;61.90;;;;;;5052781;28;20047;-68
2022/06/13 06:32:32;;;;;;;8.05;2.90;;;19.50;61.50;;;;;;5050846;28;20533;-67
2022/06/13 06:34:58;;;;;;;5.60;2.58;;;19.60;61.10;;;;;;5047880;28;20028;-69
2022/06/13 06:37:24;;;;;;;5.03;2.80;;;19.50;60.80;;;;;;5050325;28;20401;-67
2022/06/13 06:39:49;;;;;;;7.50;3.15;;;19.60;60.10;;;;;;5044381;28;20063;-68
2022/06/13 06:42:15;;;;;;;6.65;2.50;;;19.60;59.90;;;;;;5047749;28;20033;-68
2022/06/13 06:44:41;;;;;;;5.65;2.20;;;19.60;59.60;;;;;;5043391;28;20040;-69
2022/06/13 06:47:07;;;;;;;7.07;2.40;;;19.50;59.30;;;;;;5048244;28;20063;-67
2022/06/13 06:49:37;;;;;;;3.85;2.03;;;19.60;59.20;;;;;;5046077;28;20041;-67
2022/06/13 06:52:03;;;;;;;5.70;1.90;;;19.60;59.10;;;;;;5078766;28;20018;-68
2022/06/13 06:59:58;;;;;;;5.47;2.20;;;19.80;58.30;;;;;;5046062;28;20053;-67
2022/06/13 07:02:29;;;;;;;3.88;2.03;;;20.00;58.20;;;;;;5048795;28;20032;-67
2022/06/13 07:04:58;;;;;;;4.95;2.35;;;20.20;57.80;;;;;;5047159;28;20048;-67
2022/06/13 07:07:23;;;;;;;4.72;2.10;;;20.20;57.20;;;;;;5041864;28;20159;-68
2022/06/13 07:09:49;;;;;;;5.60;2.10;;;20.20;56.90;;;;;;5045369;28;20108;-67
2022/06/13 07:12:15;;;;;;;4.03;1.80;;;20.10;56.30;;;;;;5046875;28;20021;-69
2022/06/13 07:14:41;;;;;;;7.18;2.28;;;20.10;55.90;;;;;;5047734;28;20040;-69
2022/06/13 07:17:08;;;;;;;4.10;1.67;;;20.00;55.80;;;;;;5048901;28;20029;-67
2022/06/13 07:19:35;;;;;;;4.00;1.83;;;19.90;55.70;;;;;;5046453;28;20033;-67
2022/06/13 07:22:01;;;;;;;7.03;1.92;;;19.80;55.70;;;;;;5045669;28;20649;-68
2022/06/13 07:24:28;;;;;;;3.90;1.58;;;20.00;55.60;;;;;;5048361;28;20025;-67
2022/06/13 07:26:54;;;;;;;3.25;1.50;;;20.10;55.40;;;;;;5046593;28;20510;-68
2022/06/13 07:29:20;;;;;;;3.75;1.80;;;20.30;55.30;;;;;;5047474;28;20055;-66
2022/06/13 07:31:52;;;;;;;4.45;1.80;;;20.30;55.10;;;;;;5047737;28;20680;-67
2022/06/13 07:34:20;;;;;;;4.75;1.58;;;20.40;55.10;;;;;;5050044;28;20022;-67
2022/06/13 07:36:47;;;;;;;4.90;2.15;;;20.60;55.00;;;;;;5015307;28;1104503;-67
2022/06/13 07:39:13;;;;;;;5.45;2.20;;;20.80;54.50;;;;;;5058233;28;20021;-67
2022/06/13 07:41:39;;;;;;;4.55;1.65;;;20.90;54.30;;;;;;5046835;28;20071;-67
2022/06/13 07:44:06;;;;;;;6.68;2.22;;;20.90;54.30;;;;;;5049490;28;20029;-67
2022/06/13 07:46:32;;;;;;;6.00;2.15;;;20.80;54.40;;;;;;5052812;28;20653;-68
2022/06/13 07:48:59;;;;;;;6.70;2.47;;;20.80;54.50;;;;;;5047938;28;20223;-67
2022/06/13 07:51:26;;;;;;;6.80;2.63;;;20.80;54.50;;;;;;5046409;28;20017;-67
2022/06/13 07:53:52;;;;;;;5.82;2.20;;;20.80;54.30;;;;;;5050219;28;20043;-68
2022/06/13 07:56:22;;;;;;;4.07;1.77;;;20.80;53.80;;;;;;5049104;28;20029;-67
2022/06/13 07:58:50;;;;;;;3.83;1.63;;;20.80;53.40;;;;;;5050393;28;20044;-67
2022/06/13 08:01:17;;;;;;;4.20;1.60;;;20.80;53.20;;;;;;5048881;28;20025;-68
2022/06/13 08:03:43;;;;;;;2.10;1.10;;;20.60;52.40;;;;;;5048463;28;20065;-67
2022/06/13 08:06:10;;;;;;;3.35;1.30;;;20.40;52.10;;;;;;5048419;28;20056;-67
2022/06/13 08:08:36;;;;;;;2.63;1.23;;;20.30;52.00;;;;;;5050949;28;20106;-66
2022/06/13 08:11:04;;;;;;;2.95;1.05;;;20.40;52.40;;;;;;5049898;28;20459;-67
2022/06/13 08:13:30;;;;;;;2.92;1.00;;;20.30;51.90;;;;;;5050874;28;20079;-67
2022/06/13 08:15:57;;;;;;;3.40;1.27;;;20.30;51.60;;;;;;5052041;28;20009;-67
2022/06/13 08:18:23;;;;;;;4.10;1.10;;;20.50;52.10;;;;;;5055309;28;20466;-67
2022/06/13 08:20:49;;;;;;;4.13;1.25;;;20.80;51.70;;;;;;5054850;28;20025;-68
2022/06/13 08:23:18;;;;;;;3.83;1.13;;;20.80;51.00;;;;;;5051501;28;20048;-68
2022/06/13 08:25:44;;;;;;;3.00;1.30;;;20.80;50.90;;;;;;5046856;28;20025;-68
2022/06/13 08:28:11;;;;;;;3.17;1.10;;;20.50;51.40;;;;;;5051008;28;20115;-68
2022/06/13 08:30:47;;;;;;;2.72;1.10;;;20.40;51.70;;;;;;5046582;28;20021;-67
2022/06/13 08:33:13;;;;;;;2.38;1.10;;;20.40;52.10;;;;;;5049292;28;20360;-68
2022/06/13 08:35:39;;;;;;;2.50;1.08;;;20.50;52.20;;;;;;5047305;28;20090;-67
2022/06/13 08:38:05;;;;;;;2.58;1.10;;;20.70;52.20;;;;;;5050840;28;20106;-67
2022/06/13 08:40:48;;;;;;;1.80;0.90;;;20.80;52.00;;;;;;5048486;28;20021;-67
2022/06/13 08:43:50;;;;;;;2.53;1.10;;;21.00;51.90;;;;;;5048449;28;20099;-67
2022/06/13 08:46:23;;;;;;;4.05;1.40;;;20.90;51.50;;;;;;5047822;28;20033;-68
2022/06/13 08:48:58;;;;;;;1.73;0.90;;;20.70;51.10;;;;;;5049002;28;20013;-67
2022/06/13 08:51:43;;;;;;;4.43;1.20;;;20.50;51.30;;;;;;5045726;28;20060;-67
2022/06/13 08:54:14;;;;;;;3.00;1.20;;;20.30;51.60;;;;;;5041528;28;20394;-68
2022/06/13 08:56:40;;;;;;;2.30;1.10;;;20.00;51.60;;;;;;5044544;28;20475;-67
2022/06/13 08:59:24;;;;;;;6.15;1.33;;;19.80;52.80;;;;;;5045254;28;20118;-67
2022/06/13 09:01:51;;;;;;;2.50;1.00;;;19.70;52.50;;;;;;5044324;28;20064;-68
2022/06/13 09:04:26;;;;;;;3.15;1.10;;;19.80;52.10;;;;;;5047298;28;20394;-67
2022/06/13 09:07:01;;;;;;;2.80;0.90;;;19.90;52.00;;;;;;5044732;28;20025;-67
2022/06/13 09:09:29;;;;;;;2.90;1.10;;;20.10;51.40;;;;;;5043641;28;20025;-67
2022/06/13 09:12:02;;;;;;;2.47;0.93;;;20.40;51.10;;;;;;5042707;28;20096;-67
2022/06/13 09:14:36;;;;;;;2.20;0.95;;;20.60;50.40;;;;;;5047398;28;20629;-67
2022/06/13 09:17:23;;;;;;;2.70;0.80;;;20.80;50.20;;;;;;5047447;28;20064;-67
2022/06/13 09:20:01;;;;;;;2.80;1.00;;;20.80;48.80;;;;;;5044580;28;20029;-67
2022/06/13 09:22:42;;;;;;;1.25;0.70;;;20.80;49.20;;;;;;5042078;28;20114;-67
2022/06/13 09:25:22;;;;;;;2.88;0.85;;;20.70;49.40;;;;;;5049529;28;20474;-66
2022/06/13 09:28:00;;;;;;;2.85;0.90;;;20.50;50.00;;;;;;5045939;28;20056;-66
2022/06/13 09:30:34;;;;;;;2.22;0.90;;;20.50;50.20;;;;;;5044292;28;20056;-65
2022/06/13 09:33:16;;;;;;;2.70;1.05;;;20.70;50.50;;;;;;5045460;28;20066;-65
2022/06/13 09:35:55;;;;;;;2.15;0.80;;;20.90;50.40;;;;;;5048927;28;20031;-66
2022/06/13 09:38:26;;;;;;;3.25;1.20;;;21.10;49.70;;;;;;5047377;28;20037;-66
2022/06/13 09:41:00;;;;;;;3.47;1.02;;;21.30;49.30;;;;;;5044744;28;20017;-68
2022/06/13 09:43:53;;;;;;;2.17;0.80;;;21.20;48.70;;;;;;5046185;28;20108;-67
2022/06/13 09:46:18;;;;;;;;;;;21.10;48.60;;;;;;5053213;28;20025;-67
2022/06/13 09:48:56;;;;;;;3.28;0.90;;;21.10;48.80;;;;;;5079760;28;19909;-67
2022/06/13 09:51:37;;;;;;;4.95;1.35;;;21.10;48.90;;;;;;5047454;28;20029;-66
2022/06/13 09:54:21;;;;;;;3.05;0.90;;;21.00;49.00;;;;;;5042733;28;20722;-65
2022/06/13 09:57:20;;;;;;;2.35;0.90;;;21.00;49.10;;;;;;5047581;28;20031;-66
2022/06/13 10:00:10;;;;;;;3.20;1.00;;;21.20;48.70;;;;;;5045769;28;20032;-66
2022/06/13 10:02:36;;;;;;;2.78;0.90;;;21.10;47.90;;;;;;5048255;28;20045;-65
2022/06/13 10:05:21;;;;;;;2.58;0.85;;;21.10;48.00;;;;;;5046087;28;20525;-66
2022/06/13 10:08:04;;;;;;;3.13;1.02;;;21.20;47.70;;;;;;5049612;28;20024;-65
2022/06/13 10:10:47;;;;;;;2.28;1.00;;;21.20;47.50;;;;;;5049149;28;20056;-68
2022/06/13 10:13:23;;;;;;;3.50;1.27;;;21.10;47.40;;;;;;5042908;28;21056;-66
2022/06/13 10:16:24;;;;;;;3.30;1.10;;;21.00;47.70;;;;;;5044758;28;20013;-66
2022/06/13 10:19:00;;;;;;;3.33;1.00;;;21.00;48.20;;;;;;5051122;28;20536;-67
2022/06/13 10:21:46;;;;;;;5.47;1.30;;;20.90;48.00;;;;;;5048964;28;20021;-67
2022/06/13 10:24:28;;;;;;;4.68;1.48;;;20.60;47.80;;;;;;5046962;28;20520;-66
2022/06/13 10:27:16;;;;;;;1.40;0.80;;;20.50;47.90;;;;;;5046293;28;20024;-66
2022/06/13 10:29:58;;;;;;;2.20;0.90;;;20.60;48.00;;;;;;5046533;28;20032;-65
2022/06/13 10:32:42;;;;;;;1.88;0.80;;;20.60;47.70;;;;;;5051799;28;20066;-67
2022/06/13 10:35:08;;;;;;;2.65;1.08;;;20.70;47.70;;;;;;5057437;28;20024;-67
2022/06/13 10:37:42;;;;;;;3.08;1.00;;;20.60;47.30;;;;;;5053524;28;20417;-66
2022/06/13 10:40:09;;;;;;;3.38;0.90;;;20.70;47.40;;;;;;5056939;28;20029;-66
2022/06/13 10:42:36;;;;;;;3.55;0.90;;;20.80;47.20;;;;;;5052713;28;20103;-65
2022/06/13 10:45:07;;;;;;;2.08;0.90;;;21.00;46.60;;;;;;5049419;28;20033;-66
2022/06/13 10:47:41;;;;;;;2.23;0.83;;;21.10;46.40;;;;;;5053228;28;20029;-66
2022/06/13 10:50:12;;;;;;;3.00;0.85;;;21.30;46.50;;;;;;5050180;28;20029;-67
2022/06/13 10:52:40;;;;;;;4.37;1.10;;;21.30;46.60;;;;;;5052234;28;20037;-67
2022/06/13 10:55:09;;;;;;;2.83;0.70;;;21.40;46.10;;;;;;5051248;28;20085;-67
2022/06/13 10:57:40;;;;;;;2.33;0.90;;;21.60;45.90;;;;;;5048798;28;20033;-67
2022/06/13 11:00:17;;;;;;;2.15;0.80;;;21.70;45.20;;;;;;5053212;28;20032;-67
2022/06/13 11:02:43;;;;;;;1.60;0.80;;;21.70;44.60;;;;;;5048512;28;20036;-67
2022/06/13 11:05:22;;;;;;;2.03;0.70;;;21.80;44.50;;;;;;5056646;28;20487;-67
2022/06/13 11:07:58;;;;;;;3.72;0.82;;;22.00;44.40;;;;;;5052855;28;20025;-67
2022/06/13 11:10:29;;;;;;;2.40;0.90;;;22.30;44.40;;;;;;5051355;28;20037;-65
2022/06/13 11:12:55;;;;;;;3.00;1.02;;;22.50;44.20;;;;;;5049953;28;20024;-67
2022/06/13 11:23:56;;;;;;;2.15;0.98;;;21.30;44.50;;;;;;5051043;28;20457;-66
2022/06/13 11:29:14;;;;;;;2.13;1.02;;;21.00;45.40;;;;;;5049912;28;20056;-66
2022/06/13 11:31:55;;;;;;;6.57;0.93;;;21.10;45.50;;;;;;5048943;28;20025;-66
2022/06/13 11:34:32;;;;;;;2.03;0.68;;;21.20;45.00;;;;;;5044907;28;20040;-66
2022/06/13 11:37:04;;;;;;;2.42;0.85;;;21.30;44.50;;;;;;5048786;28;20033;-66
2022/06/13 11:39:39;;;;;;;3.47;1.05;;;21.50;44.20;;;;;;5051654;28;20036;-66
2022/06/13 11:42:15;;;;;;;1.77;0.80;;;21.60;43.10;;;;;;5044962;28;20510;-66
2022/06/13 11:44:44;;;;;;;1.83;0.70;;;21.70;42.90;;;;;;5051462;28;20111;-66
2022/06/13 11:47:11;;;;;;;3.13;1.20;;;22.00;42.70;;;;;;5048599;28;20087;-66
2022/06/13 11:49:41;;;;;;;2.72;0.82;;;22.30;42.50;;;;;;5054254;28;20062;-66
2022/06/13 11:52:09;;;;;;;2.95;1.02;;;22.40;42.30;;;;;;5046242;28;20029;-67
2022/06/13 11:54:35;;;;;;;1.52;0.70;;;22.40;41.40;;;;;;5049041;28;20061;-67
2022/06/13 11:57:38;;;;;;;2.25;0.75;;;22.30;41.00;;;;;;5049402;28;20110;-68
2022/06/13 12:00:16;;;;;;;4.07;0.80;;;21.90;41.00;;;;;;5043761;28;20115;-67
2022/06/13 12:02:51;;;;;;;2.28;0.50;;;21.80;41.50;;;;;;5051677;28;20021;-67
2022/06/13 12:05:28;;;;;;;2.45;0.70;;;21.70;42.00;;;;;;5048018;28;20028;-67
2022/06/13 12:08:14;;;;;;;1.98;0.80;;;21.90;42.00;;;;;;5057899;28;20029;-67
2022/06/13 12:10:51;;;;;;;3.15;0.80;;;22.30;41.80;;;;;;5049419;28;20475;-67
2022/06/13 12:13:20;;;;;;;3.00;1.10;;;22.60;41.50;;;;;;5051815;28;20394;-67
2022/06/13 12:15:55;;;;;;;1.63;0.68;;;22.70;41.00;;;;;;5048420;28;20017;-67
2022/06/13 12:18:35;;;;;;;1.38;0.60;;;22.70;40.90;;;;;;5048584;28;20028;-67
2022/06/13 12:21:15;;;;;;;2.65;0.80;;;22.70;41.70;;;;;;5053713;28;20075;-65
2022/06/13 12:24:22;;;;;;;2.92;0.80;;;22.70;39.30;;;;;;5046647;28;20055;-66
2022/06/13 12:26:52;;;;;;;1.25;0.65;;;22.90;39.60;;;;;;5050690;28;20025;-65
2022/06/13 12:29:37;;;;;;;0.95;0.52;;;23.20;38.20;;;;;;5052202;28;20022;-66
2022/06/13 12:32:36;;;;;;;1.98;0.68;;;23.40;38.20;;;;;;5049377;28;20017;-67
2022/06/13 12:35:34;;;;;;;1.63;0.80;;;23.30;38.30;;;;;;5008227;28;20398;-66
2022/06/13 12:38:13;;;;;;;2.65;0.75;;;23.10;38.90;;;;;;5050754;28;20033;-66
2022/06/13 12:41:10;;;;;;;1.20;0.70;;;23.10;39.50;;;;;;5044829;28;20021;-66
2022/06/13 12:43:53;;;;;;;2.13;0.70;;;23.30;39.40;;;;;;5045963;28;20063;-66
2022/06/13 12:46:25;;;;;;;3.10;0.80;;;23.60;39.40;;;;;;5042703;28;20433;-66
2022/06/13 12:49:27;;;;;;;2.55;1.00;;;23.70;37.90;;;;;;5044937;28;20025;-67
2022/06/13 12:51:58;;;;;;;;;;;23.60;37.80;;;;;;5048720;28;20533;-66
2022/06/13 12:54:36;;;;;;;2.10;0.70;;;23.30;38.10;;;;;;5049440;28;19977;-66
2022/06/13 12:57:19;;;;;;;4.10;1.10;;;23.10;39.00;;;;;;5046916;28;20029;-66
2022/06/13 13:00:26;;;;;;;2.30;0.90;;;23.30;39.00;;;;;;5051067;28;20470;-66
2022/06/13 13:03:17;;;;;;;2.33;0.95;;;23.20;38.90;;;;;;5050955;28;20108;-66
2022/06/13 13:06:21;;;;;;;3.95;0.90;;;23.30;38.70;;;;;;5054917;28;20098;-66
2022/06/13 13:09:17;;;;;;;2.72;0.70;;;23.40;38.20;;;;;;5045773;28;20029;-66
2022/06/13 13:12:06;;;;;;;2.25;0.80;;;23.70;38.20;;;;;;5043119;28;20029;-66
2022/06/13 13:15:15;;;;;;;3.38;0.82;;;23.80;37.70;;;;;;5043248;28;20083;-66
2022/06/13 13:18:02;;;;;;;3.13;1.02;;;23.50;37.90;;;;;;5048350;28;20040;-66
2022/06/13 13:20:54;;;;;;;2.33;0.60;;;23.20;38.10;;;;;;5045427;28;20028;-66
2022/06/13 13:23:44;;;;;;;1.10;0.50;;;23.10;38.50;;;;;;5041238;28;20055;-66
2022/06/13 13:26:47;;;;;;;2.83;0.65;;;23.20;38.40;;;;;;5058454;28;20079;-66
2022/06/13 13:29:27;;;;;;;2.05;0.80;;;23.10;38.50;;;;;;5042716;28;20028;-65
2022/06/13 13:31:55;;;;;;;1.83;0.60;;;22.90;38.50;;;;;;5045310;28;20111;-66
2022/06/13 13:34:42;;;;;;;2.97;0.90;;;22.90;39.20;;;;;;5045208;28;20483;-66
2022/06/13 13:37:24;;;;;;;2.92;0.70;;;22.90;38.20;;;;;;5044449;28;20391;-66
2022/06/13 13:40:13;;;;;;;3.95;1.08;;;23.30;38.40;;;;;;5044709;28;20025;-65
2022/06/13 13:42:59;;;;;;;1.65;0.82;;;23.40;37.80;;;;;;5044162;28;20029;-67
2022/06/13 13:45:32;;;;;;;1.77;0.80;;;23.70;38.00;;;;;;5046414;28;20116;-67
2022/06/13 13:48:06;;;;;;;1.20;0.70;;;23.90;37.30;;;;;;5086492;28;20017;-65